Airfield :
LOGIN :

Register | Disclaimer

   EN    FR    IT 

 










Legend :    VFR   Marginal VFR   IFR   Intensive IFR   Very Intensive IFR
Visi :
Ceiling :
>= 8 km
>= 3000ft
5 to 8 km
1000 to 3000 ft
1500m to 5 km
500 to 1000 ft
800 to 1500m
200 to 500 ft
< 800m
< 200 ft
Symbols :   Thunderstorms  Fog  Heavy snow  Heavy precipitations  Wind > 20 kt
SIGMETs :     Misc.  Thunderstorms  Icing  Turbulence  Mountain Waves  Volcanic Ashes






- Airport Elevation : 1046 ft
- IATA code : FDE


ENBL - Bringeland

CURRENT METAR :
  • 070920Z 22004KT 5000 2000W SHRA VCFG FEW003 SCT007 BKN015 08/08 Q0996

EXPIRED METARs :
  • 070850Z 22006KT 9999 6000E -SHRA VCFG FEW004 SCT011 BKN018 08/08 Q0996
  • 070820Z 25008KT 5000 SHRA VCFG FEW004 SCT009 BKN014 09/08 Q0996
  • 070750Z 25010KT 9999 5000E -SHRA VCFG FEW003 SCT008 BKN013 09/08 Q0995
  • 070720Z 25009G19KT 5000 SHRA VCFG FEW003 SCT008 BKN012 09/08 Q0995
  • 070650Z 25007KT 4000 2000W SHRA VCFG FEW003 SCT007 BKN011 09/09 Q0995

TAF N/A



MET'MAP, your aeronautical weather chart ! - Copyright ORBIFLY December 2007 - Disclaimer

ORBIFLY MET'MAP TEAM :

Programming & Development : Alexandra Zaïnal
Original concept : Baudouin d'Aumeries
Technical & hardware support : Manuel Goepfert
Assistance : Marc-Olivier Méhu




SOURCES & CREDITS :

   NOAA